sensor_id;sensor_type;location;lat;lon;timestamp;temperature;humidity
17986;DHT22;9118;48.122;11.546;2023-07-13T00:02:06;20.70;99.90
17986;DHT22;9118;48.122;11.546;2023-07-13T00:04:34;20.80;99.90
17986;DHT22;9118;48.122;11.546;2023-07-13T00:07:02;20.80;99.90
17986;DHT22;9118;48.122;11.546;2023-07-13T00:09:29;20.90;99.90
17986;DHT22;9118;48.122;11.546;2023-07-13T00:11:58;20.60;99.90
17986;DHT22;9118;48.122;11.546;2023-07-13T00:14:27;20.60;99.90
17986;DHT22;9118;48.122;11.546;2023-07-13T00:16:55;20.70;99.90
17986;DHT22;9118;48.122;11.546;2023-07-13T00:21:52;20.60;99.90
17986;DHT22;9118;48.122;11.546;2023-07-13T00:26:49;20.60;99.90
17986;DHT22;9118;48.122;11.546;2023-07-13T00:29:18;20.90;99.90
17986;DHT22;9118;48.122;11.546;2023-07-13T00:39:08;20.60;99.90
17986;DHT22;9118;48.122;11.546;2023-07-13T00:44:03;20.60;99.90
17986;DHT22;9118;48.122;11.546;2023-07-13T00:46:40;20.60;99.90
17986;DHT22;9118;48.122;11.546;2023-07-13T00:49:11;20.60;99.90
17986;DHT22;9118;48.122;11.546;2023-07-13T00:51:42;20.60;99.90
17986;DHT22;9118;48.122;11.546;2023-07-13T00:54:14;20.70;99.90
17986;DHT22;9118;48.122;11.546;2023-07-13T00:56:45;20.80;99.90
17986;DHT22;9118;48.122;11.546;2023-07-13T00:59:15;20.60;99.90
17986;DHT22;9118;48.122;11.546;2023-07-13T01:01:45;20.50;99.90
17986;DHT22;9118;48.122;11.546;2023-07-13T01:06:40;20.60;99.90
17986;DHT22;9118;48.122;11.546;2023-07-13T01:09:10;20.50;99.90
17986;DHT22;9118;48.122;11.546;2023-07-13T01:11:37;20.50;99.90
17986;DHT22;9118;48.122;11.546;2023-07-13T01:14:05;20.50;99.90
17986;DHT22;9118;48.122;11.546;2023-07-13T01:16:34;20.50;99.90
17986;DHT22;9118;48.122;11.546;2023-07-13T01:19:07;20.90;99.90
17986;DHT22;9118;48.122;11.546;2023-07-13T01:29:03;20.50;99.90
17986;DHT22;9118;48.122;11.546;2023-07-13T01:51:11;20.50;99.90
17986;DHT22;9118;48.122;11.546;2023-07-13T02:03:29;19.50;99.90
17986;DHT22;9118;48.122;11.546;2023-07-13T02:08:23;19.20;99.90
17986;DHT22;9118;48.122;11.546;2023-07-13T02:10:50;19.20;99.90
17986;DHT22;9118;48.122;11.546;2023-07-13T02:13:19;19.50;99.90
17986;DHT22;9118;48.122;11.546;2023-07-13T02:18:13;19.50;99.90
17986;DHT22;9118;48.122;11.546;2023-07-13T02:20:42;19.70;99.90
17986;DHT22;9118;48.122;11.546;2023-07-13T02:23:10;19.90;99.90
17986;DHT22;9118;48.122;11.546;2023-07-13T02:28:04;19.80;99.90
17986;DHT22;9118;48.122;11.546;2023-07-13T02:30:34;19.90;99.90
17986;DHT22;9118;48.122;11.546;2023-07-13T02:33:01;20.20;99.90
17986;DHT22;9118;48.122;11.546;2023-07-13T02:35:28;20.10;99.90
17986;DHT22;9118;48.122;11.546;2023-07-13T02:37:55;19.70;99.90
17986;DHT22;9118;48.122;11.546;2023-07-13T02:40:22;20.30;99.90
17986;DHT22;9118;48.122;11.546;2023-07-13T02:42:49;20.20;99.90
17986;DHT22;9118;48.122;11.546;2023-07-13T02:47:44;19.80;99.90
17986;DHT22;9118;48.122;11.546;2023-07-13T02:55:06;19.30;99.90
17986;DHT22;9118;48.122;11.546;2023-07-13T03:05:00;18.70;99.90
17986;DHT22;9118;48.122;11.546;2023-07-13T03:07:27;18.40;99.90
17986;DHT22;9118;48.122;11.546;2023-07-13T03:09:55;18.30;99.90
17986;DHT22;9118;48.122;11.546;2023-07-13T03:14:50;18.50;99.90
17986;DHT22;9118;48.122;11.546;2023-07-13T03:17:16;18.40;99.90
17986;DHT22;9118;48.122;11.546;2023-07-13T03:22:16;18.70;99.90
17986;DHT22;9118;48.122;11.546;2023-07-13T03:27:10;18.10;99.90
17986;DHT22;9118;48.122;11.546;2023-07-13T03:32:05;18.10;99.90
17986;DHT22;9118;48.122;11.546;2023-07-13T03:36:59;17.90;99.90
17986;DHT22;9118;48.122;11.546;2023-07-13T03:39:28;17.90;99.90
17986;DHT22;9118;48.122;11.546;2023-07-13T03:41:55;18.10;99.90
17986;DHT22;9118;48.122;11.546;2023-07-13T03:46:49;18.00;99.90
17986;DHT22;9118;48.122;11.546;2023-07-13T03:49:16;17.90;99.90
17986;DHT22;9118;48.122;11.546;2023-07-13T03:51:43;18.20;99.90
17986;DHT22;9118;48.122;11.546;2023-07-13T03:54:11;18.50;99.90
17986;DHT22;9118;48.122;11.546;2023-07-13T03:56:39;18.70;99.90
17986;DHT22;9118;48.122;11.546;2023-07-13T03:59:07;18.70;99.90
17986;DHT22;9118;48.122;11.546;2023-07-13T04:06:30;18.80;99.90
17986;DHT22;9118;48.122;11.546;2023-07-13T04:08:59;18.90;99.90
17986;DHT22;9118;48.122;11.546;2023-07-13T04:11:29;18.90;99.90
17986;DHT22;9118;48.122;11.546;2023-07-13T04:13:59;19.00;99.90
17986;DHT22;9118;48.122;11.546;2023-07-13T04:16:26;18.90;99.90
17986;DHT22;9118;48.122;11.546;2023-07-13T04:21:24;19.50;99.90
17986;DHT22;9118;48.122;11.546;2023-07-13T04:23:52;19.00;99.90
17986;DHT22;9118;48.122;11.546;2023-07-13T04:28:48;19.10;99.90
17986;DHT22;9118;48.122;11.546;2023-07-13T04:31:17;19.00;99.90
17986;DHT22;9118;48.122;11.546;2023-07-13T04:33:44;19.20;99.90
17986;DHT22;9118;48.122;11.546;2023-07-13T04:41:08;18.20;99.90
17986;DHT22;9118;48.122;11.546;2023-07-13T04:43:36;18.50;99.90
17986;DHT22;9118;48.122;11.546;2023-07-13T04:46:04;19.30;99.90
17986;DHT22;9118;48.122;11.546;2023-07-13T04:48:33;19.00;99.90
17986;DHT22;9118;48.122;11.546;2023-07-13T04:51:01;19.10;99.90
17986;DHT22;9118;48.122;11.546;2023-07-13T04:53:29;19.10;99.90
17986;DHT22;9118;48.122;11.546;2023-07-13T05:00:53;19.20;99.90
17986;DHT22;9118;48.122;11.546;2023-07-13T05:05:56;19.30;99.90
17986;DHT22;9118;48.122;11.546;2023-07-13T05:08:24;19.00;99.90
17986;DHT22;9118;48.122;11.546;2023-07-13T05:10:51;18.90;99.90
17986;DHT22;9118;48.122;11.546;2023-07-13T05:13:18;19.00;99.90
17986;DHT22;9118;48.122;11.546;2023-07-13T05:15:47;18.90;99.90
17986;DHT22;9118;48.122;11.546;2023-07-13T05:52:50;18.80;99.90
17986;DHT22;9118;48.122;11.546;2023-07-13T05:57:46;19.30;99.90
17986;DHT22;9118;48.122;11.546;2023-07-13T06:00:14;19.20;99.90
17986;DHT22;9118;48.122;11.546;2023-07-13T06:07:37;19.40;99.90
17986;DHT22;9118;48.122;11.546;2023-07-13T06:10:05;20.20;99.90
17986;DHT22;9118;48.122;11.546;2023-07-13T06:15:06;19.30;99.90
17986;DHT22;9118;48.122;11.546;2023-07-13T06:17:36;19.40;99.90
17986;DHT22;9118;48.122;11.546;2023-07-13T06:32:21;19.80;99.90
17986;DHT22;9118;48.122;11.546;2023-07-13T06:34:49;19.80;99.90
17986;DHT22;9118;48.122;11.546;2023-07-13T06:42:13;20.00;99.90
17986;DHT22;9118;48.122;11.546;2023-07-13T06:49:37;19.20;99.90
17986;DHT22;9118;48.122;11.546;2023-07-13T07:01:56;19.80;99.90
17986;DHT22;9118;48.122;11.546;2023-07-13T07:04:25;19.60;99.90
17986;DHT22;9118;48.122;11.546;2023-07-13T07:06:54;19.80;99.90
17986;DHT22;9118;48.122;11.546;2023-07-13T07:09:23;19.70;99.90
17986;DHT22;9118;48.122;11.546;2023-07-13T07:14:18;20.00;99.90
17986;DHT22;9118;48.122;11.546;2023-07-13T07:21:42;20.20;99.90
17986;DHT22;9118;48.122;11.546;2023-07-13T07:24:11;19.70;99.90
17986;DHT22;9118;48.122;11.546;2023-07-13T07:26:38;19.60;99.90
17986;DHT22;9118;48.122;11.546;2023-07-13T07:31:36;19.50;99.90
17986;DHT22;9118;48.122;11.546;2023-07-13T07:34:04;19.30;99.90
17986;DHT22;9118;48.122;11.546;2023-07-13T07:36:31;19.30;99.90
17986;DHT22;9118;48.122;11.546;2023-07-13T07:39:00;19.70;99.90
17986;DHT22;9118;48.122;11.546;2023-07-13T07:41:29;19.40;99.90
17986;DHT22;9118;48.122;11.546;2023-07-13T07:46:23;19.20;99.90
17986;DHT22;9118;48.122;11.546;2023-07-13T07:53:46;20.20;99.90
17986;DHT22;9118;48.122;11.546;2023-07-13T07:56:14;19.60;99.90
17986;DHT22;9118;48.122;11.546;2023-07-13T07:58:43;19.60;99.90
17986;DHT22;9118;48.122;11.546;2023-07-13T08:08:32;19.00;99.90
17986;DHT22;9118;48.122;11.546;2023-07-13T08:11:02;19.60;99.90
17986;DHT22;9118;48.122;11.546;2023-07-13T08:13:29;19.80;99.90
17986;DHT22;9118;48.122;11.546;2023-07-13T08:15:58;19.30;99.90
17986;DHT22;9118;48.122;11.546;2023-07-13T08:20:53;19.10;99.90
17986;DHT22;9118;48.122;11.546;2023-07-13T08:23:22;19.10;99.90
17986;DHT22;9118;48.122;11.546;2023-07-13T08:25:51;19.10;99.90
17986;DHT22;9118;48.122;11.546;2023-07-13T08:33:16;19.10;99.90
17986;DHT22;9118;48.122;11.546;2023-07-13T08:35:45;19.20;99.90
17986;DHT22;9118;48.122;11.546;2023-07-13T08:40:41;19.10;99.90
17986;DHT22;9118;48.122;11.546;2023-07-13T08:43:13;19.00;99.90
17986;DHT22;9118;48.122;11.546;2023-07-13T08:45:44;19.20;99.90
17986;DHT22;9118;48.122;11.546;2023-07-13T08:48:18;19.10;99.90
17986;DHT22;9118;48.122;11.546;2023-07-13T08:50:51;19.00;99.90
17986;DHT22;9118;48.122;11.546;2023-07-13T08:53:22;19.30;99.90
17986;DHT22;9118;48.122;11.546;2023-07-13T08:55:55;19.20;99.90
17986;DHT22;9118;48.122;11.546;2023-07-13T08:58:25;19.00;99.90
17986;DHT22;9118;48.122;11.546;2023-07-13T09:01:01;19.00;99.90
17986;DHT22;9118;48.122;11.546;2023-07-13T09:03:45;19.00;99.90
17986;DHT22;9118;48.122;11.546;2023-07-13T09:06:14;19.00;99.90
17986;DHT22;9118;48.122;11.546;2023-07-13T09:08:52;19.20;99.90
17986;DHT22;9118;48.122;11.546;2023-07-13T09:11:33;19.20;99.90
17986;DHT22;9118;48.122;11.546;2023-07-13T09:14:18;19.40;99.90
17986;DHT22;9118;48.122;11.546;2023-07-13T09:16:49;19.80;99.90
17986;DHT22;9118;48.122;11.546;2023-07-13T09:19:23;19.50;99.90
17986;DHT22;9118;48.122;11.546;2023-07-13T09:21:53;19.60;99.90
17986;DHT22;9118;48.122;11.546;2023-07-13T09:24:30;19.50;99.90
17986;DHT22;9118;48.122;11.546;2023-07-13T09:27:05;19.00;99.90
17986;DHT22;9118;48.122;11.546;2023-07-13T09:29:41;19.90;99.90
17986;DHT22;9118;48.122;11.546;2023-07-13T09:32:13;19.90;99.90
17986;DHT22;9118;48.122;11.546;2023-07-13T09:34:50;20.00;99.90
17986;DHT22;9118;48.122;11.546;2023-07-13T09:37:20;20.00;99.90
17986;DHT22;9118;48.122;11.546;2023-07-13T09:39:49;19.80;99.90
17986;DHT22;9118;48.122;11.546;2023-07-13T09:42:19;20.00;99.90
17986;DHT22;9118;48.122;11.546;2023-07-13T09:44:54;19.90;99.90
17986;DHT22;9118;48.122;11.546;2023-07-13T09:47:23;20.00;99.90
17986;DHT22;9118;48.122;11.546;2023-07-13T09:49:58;20.50;99.90
17986;DHT22;9118;48.122;11.546;2023-07-13T09:57:26;20.80;99.90
17986;DHT22;9118;48.122;11.546;2023-07-13T09:59:55;20.80;99.90
17986;DHT22;9118;48.122;11.546;2023-07-13T10:02:26;20.80;99.90
17986;DHT22;9118;48.122;11.546;2023-07-13T10:04:58;21.10;99.90
17986;DHT22;9118;48.122;11.546;2023-07-13T10:12:21;21.40;99.90
17986;DHT22;9118;48.122;11.546;2023-07-13T10:14:52;22.10;99.90
17986;DHT22;9118;48.122;11.546;2023-07-13T10:17:27;22.10;99.90
17986;DHT22;9118;48.122;11.546;2023-07-13T10:19:59;21.90;99.90
17986;DHT22;9118;48.122;11.546;2023-07-13T10:22:36;22.30;99.90
17986;DHT22;9118;48.122;11.546;2023-07-13T10:25:15;22.20;99.90
17986;DHT22;9118;48.122;11.546;2023-07-13T10:27:44;22.20;99.90
17986;DHT22;9118;48.122;11.546;2023-07-13T10:30:15;21.50;99.90
17986;DHT22;9118;48.122;11.546;2023-07-13T10:32:44;21.50;99.90
17986;DHT22;9118;48.122;11.546;2023-07-13T10:35:15;21.70;99.90
17986;DHT22;9118;48.122;11.546;2023-07-13T10:37:49;21.70;99.90
17986;DHT22;9118;48.122;11.546;2023-07-13T10:40:22;22.10;99.90
17986;DHT22;9118;48.122;11.546;2023-07-13T10:42:51;22.10;99.90
17986;DHT22;9118;48.122;11.546;2023-07-13T10:45:21;22.20;99.90
17986;DHT22;9118;48.122;11.546;2023-07-13T10:47:52;22.40;99.90
17986;DHT22;9118;48.122;11.546;2023-07-13T10:50:24;22.20;99.90
17986;DHT22;9118;48.122;11.546;2023-07-13T10:52:53;22.30;99.90
17986;DHT22;9118;48.122;11.546;2023-07-13T10:55:37;22.30;99.90
17986;DHT22;9118;48.122;11.546;2023-07-13T10:58:13;22.50;99.90
17986;DHT22;9118;48.122;11.546;2023-07-13T11:00:48;22.20;99.90
17986;DHT22;9118;48.122;11.546;2023-07-13T11:03:18;22.20;99.90
17986;DHT22;9118;48.122;11.546;2023-07-13T11:10:54;22.50;99.90
17986;DHT22;9118;48.122;11.546;2023-07-13T11:13:38;22.70;99.90
17986;DHT22;9118;48.122;11.546;2023-07-13T11:16:35;22.50;99.90
17986;DHT22;9118;48.122;11.546;2023-07-13T11:19:28;22.60;99.90
17986;DHT22;9118;48.122;11.546;2023-07-13T11:22:41;23.10;99.90
17986;DHT22;9118;48.122;11.546;2023-07-13T11:25:26;23.00;99.90
17986;DHT22;9118;48.122;11.546;2023-07-13T11:28:06;22.90;99.90
17986;DHT22;9118;48.122;11.546;2023-07-13T11:30:40;22.90;99.90
17986;DHT22;9118;48.122;11.546;2023-07-13T11:33:14;23.00;99.90
17986;DHT22;9118;48.122;11.546;2023-07-13T11:35:45;22.50;99.90
17986;DHT22;9118;48.122;11.546;2023-07-13T11:38:19;22.50;99.90
17986;DHT22;9118;48.122;11.546;2023-07-13T11:40:48;22.30;99.90
17986;DHT22;9118;48.122;11.546;2023-07-13T11:43:16;22.50;99.90
17986;DHT22;9118;48.122;11.546;2023-07-13T11:48:24;22.20;99.90
17986;DHT22;9118;48.122;11.546;2023-07-13T11:51:01;22.20;99.90
17986;DHT22;9118;48.122;11.546;2023-07-13T11:53:40;22.30;99.90
17986;DHT22;9118;48.122;11.546;2023-07-13T11:56:08;22.50;99.90
17986;DHT22;9118;48.122;11.546;2023-07-13T11:58:35;22.70;99.90
17986;DHT22;9118;48.122;11.546;2023-07-13T12:01:03;22.40;99.90
17986;DHT22;9118;48.122;11.546;2023-07-13T12:03:32;22.40;99.90
17986;DHT22;9118;48.122;11.546;2023-07-13T12:06:02;22.40;99.90
17986;DHT22;9118;48.122;11.546;2023-07-13T12:08:38;22.50;99.90
17986;DHT22;9118;48.122;11.546;2023-07-13T12:11:14;22.60;99.90
17986;DHT22;9118;48.122;11.546;2023-07-13T12:13:44;23.20;99.90
17986;DHT22;9118;48.122;11.546;2023-07-13T12:16:15;23.40;99.90
17986;DHT22;9118;48.122;11.546;2023-07-13T12:18:43;22.90;99.90
17986;DHT22;9118;48.122;11.546;2023-07-13T12:21:17;24.30;99.90
17986;DHT22;9118;48.122;11.546;2023-07-13T12:23:48;23.50;99.90
17986;DHT22;9118;48.122;11.546;2023-07-13T12:26:17;23.00;99.90
17986;DHT22;9118;48.122;11.546;2023-07-13T12:28:47;22.60;99.90
17986;DHT22;9118;48.122;11.546;2023-07-13T12:31:31;23.10;99.90
17986;DHT22;9118;48.122;11.546;2023-07-13T12:34:03;23.60;99.90
17986;DHT22;9118;48.122;11.546;2023-07-13T12:36:32;23.50;99.90
17986;DHT22;9118;48.122;11.546;2023-07-13T12:39:06;23.30;99.90
17986;DHT22;9118;48.122;11.546;2023-07-13T12:44:07;23.20;99.90
17986;DHT22;9118;48.122;11.546;2023-07-13T12:46:35;23.30;99.90
17986;DHT22;9118;48.122;11.546;2023-07-13T12:49:05;23.20;99.90
17986;DHT22;9118;48.122;11.546;2023-07-13T12:54:15;23.60;99.90
17986;DHT22;9118;48.122;11.546;2023-07-13T12:56:44;23.70;99.90
17986;DHT22;9118;48.122;11.546;2023-07-13T12:59:21;24.00;99.90
17986;DHT22;9118;48.122;11.546;2023-07-13T13:01:49;24.70;99.90
17986;DHT22;9118;48.122;11.546;2023-07-13T13:06:47;23.90;99.90
17986;DHT22;9118;48.122;11.546;2023-07-13T13:09:17;23.60;99.90
17986;DHT22;9118;48.122;11.546;2023-07-13T13:11:46;23.90;99.90
17986;DHT22;9118;48.122;11.546;2023-07-13T13:16:47;23.30;99.90
17986;DHT22;9118;48.122;11.546;2023-07-13T13:19:18;23.30;99.90
17986;DHT22;9118;48.122;11.546;2023-07-13T13:24:21;23.60;99.90
17986;DHT22;9118;48.122;11.546;2023-07-13T13:26:50;23.70;99.90
17986;DHT22;9118;48.122;11.546;2023-07-13T13:29:21;23.70;99.90
17986;DHT22;9118;48.122;11.546;2023-07-13T13:31:49;23.70;99.90
17986;DHT22;9118;48.122;11.546;2023-07-13T13:34:24;23.90;99.90
17986;DHT22;9118;48.122;11.546;2023-07-13T13:36:53;23.80;99.90
17986;DHT22;9118;48.122;11.546;2023-07-13T13:39:24;23.90;99.90
17986;DHT22;9118;48.122;11.546;2023-07-13T13:41:53;24.40;99.90
17986;DHT22;9118;48.122;11.546;2023-07-13T13:44:23;23.70;99.90
17986;DHT22;9118;48.122;11.546;2023-07-13T13:46:52;23.80;99.90
17986;DHT22;9118;48.122;11.546;2023-07-13T13:49:22;24.00;99.90
17986;DHT22;9118;48.122;11.546;2023-07-13T13:51:50;23.60;99.90
17986;DHT22;9118;48.122;11.546;2023-07-13T13:54:19;23.20;99.90
17986;DHT22;9118;48.122;11.546;2023-07-13T13:56:49;23.90;99.90
17986;DHT22;9118;48.122;11.546;2023-07-13T14:01:46;24.10;99.90
17986;DHT22;9118;48.122;11.546;2023-07-13T14:04:17;23.90;99.90
17986;DHT22;9118;48.122;11.546;2023-07-13T14:06:45;24.80;99.90
17986;DHT22;9118;48.122;11.546;2023-07-13T14:09:14;24.00;99.90
17986;DHT22;9118;48.122;11.546;2023-07-13T14:14:14;25.00;99.90
17986;DHT22;9118;48.122;11.546;2023-07-13T14:16:42;24.90;99.90
17986;DHT22;9118;48.122;11.546;2023-07-13T14:19:12;25.30;99.90
17986;DHT22;9118;48.122;11.546;2023-07-13T14:21:41;25.10;99.90
17986;DHT22;9118;48.122;11.546;2023-07-13T14:24:08;25.70;99.90
17986;DHT22;9118;48.122;11.546;2023-07-13T14:26:37;26.40;99.90
17986;DHT22;9118;48.122;11.546;2023-07-13T14:29:13;28.60;99.90
17986;DHT22;9118;48.122;11.546;2023-07-13T14:31:41;31.00;99.90
17986;DHT22;9118;48.122;11.546;2023-07-13T14:34:09;34.30;98.00
17986;DHT22;9118;48.122;11.546;2023-07-13T14:36:39;34.20;97.80
17986;DHT22;9118;48.122;11.546;2023-07-13T14:39:12;33.90;95.40
17986;DHT22;9118;48.122;11.546;2023-07-13T14:41:41;30.50;97.80
17986;DHT22;9118;48.122;11.546;2023-07-13T14:44:25;30.40;99.40
17986;DHT22;9118;48.122;11.546;2023-07-13T14:46:55;30.80;98.30
17986;DHT22;9118;48.122;11.546;2023-07-13T14:49:27;33.50;96.10
17986;DHT22;9118;48.122;11.546;2023-07-13T14:51:55;36.00;93.40
17986;DHT22;9118;48.122;11.546;2023-07-13T14:54:25;34.90;85.50
17986;DHT22;9118;48.122;11.546;2023-07-13T14:56:52;34.90;91.20
17986;DHT22;9118;48.122;11.546;2023-07-13T15:01:51;35.80;87.30
17986;DHT22;9118;48.122;11.546;2023-07-13T15:04:18;36.50;85.70
17986;DHT22;9118;48.122;11.546;2023-07-13T15:06:56;37.70;84.30
17986;DHT22;9118;48.122;11.546;2023-07-13T15:09:25;39.90;80.80
17986;DHT22;9118;48.122;11.546;2023-07-13T15:11:55;40.40;77.60
17986;DHT22;9118;48.122;11.546;2023-07-13T15:14:24;39.90;75.20
17986;DHT22;9118;48.122;11.546;2023-07-13T15:16:53;39.50;76.30
17986;DHT22;9118;48.122;11.546;2023-07-13T15:21:49;37.40;71.70
17986;DHT22;9118;48.122;11.546;2023-07-13T15:24:17;38.60;73.50
17986;DHT22;9118;48.122;11.546;2023-07-13T15:26:44;39.20;71.30
17986;DHT22;9118;48.122;11.546;2023-07-13T15:31:45;39.20;65.20
17986;DHT22;9118;48.122;11.546;2023-07-13T15:34:20;38.30;72.60
17986;DHT22;9118;48.122;11.546;2023-07-13T15:39:26;37.20;67.90
17986;DHT22;9118;48.122;11.546;2023-07-13T15:41:53;37.00;77.20
17986;DHT22;9118;48.122;11.546;2023-07-13T15:44:24;33.30;81.10
17986;DHT22;9118;48.122;11.546;2023-07-13T15:46:56;33.20;81.10
17986;DHT22;9118;48.122;11.546;2023-07-13T15:54:20;31.50;80.00
17986;DHT22;9118;48.122;11.546;2023-07-13T15:56:53;30.90;87.70
17986;DHT22;9118;48.122;11.546;2023-07-13T15:59:20;29.50;90.50
17986;DHT22;9118;48.122;11.546;2023-07-13T16:01:47;28.80;91.60
17986;DHT22;9118;48.122;11.546;2023-07-13T16:04:16;28.40;92.40
17986;DHT22;9118;48.122;11.546;2023-07-13T16:06:45;27.60;92.10
17986;DHT22;9118;48.122;11.546;2023-07-13T16:09:18;27.60;92.50
17986;DHT22;9118;48.122;11.546;2023-07-13T16:11:47;27.80;92.80
17986;DHT22;9118;48.122;11.546;2023-07-13T16:14:15;27.60;92.70
17986;DHT22;9118;48.122;11.546;2023-07-13T16:16:43;27.50;92.70
17986;DHT22;9118;48.122;11.546;2023-07-13T16:19:11;28.50;93.20
17986;DHT22;9118;48.122;11.546;2023-07-13T16:21:43;29.40;92.20
17986;DHT22;9118;48.122;11.546;2023-07-13T16:24:17;30.20;91.60
17986;DHT22;9118;48.122;11.546;2023-07-13T16:26:45;31.00;90.30
17986;DHT22;9118;48.122;11.546;2023-07-13T16:29:14;32.50;90.30
17986;DHT22;9118;48.122;11.546;2023-07-13T16:36:36;36.00;77.50
17986;DHT22;9118;48.122;11.546;2023-07-13T16:39:11;36.60;82.10
17986;DHT22;9118;48.122;11.546;2023-07-13T16:41:40;38.70;81.00
17986;DHT22;9118;48.122;11.546;2023-07-13T16:44:11;39.80;78.20
17986;DHT22;9118;48.122;11.546;2023-07-13T16:46:39;37.80;76.40
17986;DHT22;9118;48.122;11.546;2023-07-13T16:49:21;32.80;78.00
17986;DHT22;9118;48.122;11.546;2023-07-13T16:51:50;32.90;84.70
17986;DHT22;9118;48.122;11.546;2023-07-13T16:54:19;31.50;86.90
17986;DHT22;9118;48.122;11.546;2023-07-13T16:56:46;31.90;89.20
17986;DHT22;9118;48.122;11.546;2023-07-13T16:59:19;29.50;90.20
17986;DHT22;9118;48.122;11.546;2023-07-13T17:01:50;28.70;86.50
17986;DHT22;9118;48.122;11.546;2023-07-13T17:04:17;28.70;90.70
17986;DHT22;9118;48.122;11.546;2023-07-13T17:06:49;28.40;91.40
17986;DHT22;9118;48.122;11.546;2023-07-13T17:09:18;27.90;92.40
17986;DHT22;9118;48.122;11.546;2023-07-13T17:11:45;27.60;92.50
17986;DHT22;9118;48.122;11.546;2023-07-13T17:14:16;28.80;92.70
17986;DHT22;9118;48.122;11.546;2023-07-13T17:16:46;27.20;92.60
17986;DHT22;9118;48.122;11.546;2023-07-13T17:19:17;26.60;90.80
17986;DHT22;9118;48.122;11.546;2023-07-13T17:24:15;26.20;91.60
17986;DHT22;9118;48.122;11.546;2023-07-13T17:26:46;26.10;93.80
17986;DHT22;9118;48.122;11.546;2023-07-13T17:29:13;26.30;94.40
17986;DHT22;9118;48.122;11.546;2023-07-13T17:31:43;26.30;94.30
17986;DHT22;9118;48.122;11.546;2023-07-13T17:34:12;27.10;93.30
17986;DHT22;9118;48.122;11.546;2023-07-13T17:36:43;27.00;93.90
17986;DHT22;9118;48.122;11.546;2023-07-13T17:39:14;26.90;93.90
17986;DHT22;9118;48.122;11.546;2023-07-13T17:41:46;27.10;94.60
17986;DHT22;9118;48.122;11.546;2023-07-13T17:44:16;27.20;94.60
17986;DHT22;9118;48.122;11.546;2023-07-13T17:46:45;26.60;94.80
17986;DHT22;9118;48.122;11.546;2023-07-13T17:49:17;26.20;94.90
17986;DHT22;9118;48.122;11.546;2023-07-13T17:51:46;26.70;95.70
17986;DHT22;9118;48.122;11.546;2023-07-13T17:54:14;26.10;94.90
17986;DHT22;9118;48.122;11.546;2023-07-13T17:56:41;25.90;95.40
17986;DHT22;9118;48.122;11.546;2023-07-13T17:59:09;25.50;95.30
17986;DHT22;9118;48.122;11.546;2023-07-13T18:04:08;25.70;93.30
17986;DHT22;9118;48.122;11.546;2023-07-13T18:06:37;25.30;96.20
17986;DHT22;9118;48.122;11.546;2023-07-13T18:09:14;25.10;96.70
17986;DHT22;9118;48.122;11.546;2023-07-13T18:11:41;25.10;96.80
17986;DHT22;9118;48.122;11.546;2023-07-13T18:14:11;24.70;97.10
17986;DHT22;9118;48.122;11.546;2023-07-13T18:16:38;25.00;97.60
17986;DHT22;9118;48.122;11.546;2023-07-13T18:19:32;24.70;97.50
17986;DHT22;9118;48.122;11.546;2023-07-13T18:21:59;24.40;97.10
17986;DHT22;9118;48.122;11.546;2023-07-13T18:24:27;24.40;97.70
17986;DHT22;9118;48.122;11.546;2023-07-13T18:26:56;24.60;97.80
17986;DHT22;9118;48.122;11.546;2023-07-13T18:29:24;23.50;97.40
17986;DHT22;9118;48.122;11.546;2023-07-13T18:31:51;24.80;98.30
17986;DHT22;9118;48.122;11.546;2023-07-13T18:36:48;24.80;95.80
17986;DHT22;9118;48.122;11.546;2023-07-13T18:39:15;24.80;98.60
17986;DHT22;9118;48.122;11.546;2023-07-13T18:41:43;24.10;97.80
17986;DHT22;9118;48.122;11.546;2023-07-13T18:44:11;24.80;98.70
17986;DHT22;9118;48.122;11.546;2023-07-13T18:46:39;24.60;99.10
17986;DHT22;9118;48.122;11.546;2023-07-13T18:49:08;24.60;98.60
17986;DHT22;9118;48.122;11.546;2023-07-13T18:51:37;24.70;98.50
17986;DHT22;9118;48.122;11.546;2023-07-13T18:54:09;23.80;98.40
17986;DHT22;9118;48.122;11.546;2023-07-13T18:56:37;24.80;99.10
17986;DHT22;9118;48.122;11.546;2023-07-13T18:59:04;24.80;99.40
17986;DHT22;9118;48.122;11.546;2023-07-13T19:01:32;24.50;98.80
17986;DHT22;9118;48.122;11.546;2023-07-13T19:04:04;24.60;99.10
17986;DHT22;9118;48.122;11.546;2023-07-13T19:08:59;24.60;96.90
17986;DHT22;9118;48.122;11.546;2023-07-13T19:11:26;24.40;99.40
17986;DHT22;9118;48.122;11.546;2023-07-13T19:18:49;24.30;97.30
17986;DHT22;9118;48.122;11.546;2023-07-13T19:21:26;24.40;99.80
17986;DHT22;9118;48.122;11.546;2023-07-13T19:26:28;24.30;99.90
17986;DHT22;9118;48.122;11.546;2023-07-13T19:28:57;24.20;99.90
17986;DHT22;9118;48.122;11.546;2023-07-13T19:31:27;23.70;99.90
17986;DHT22;9118;48.122;11.546;2023-07-13T19:33:58;24.20;99.90
17986;DHT22;9118;48.122;11.546;2023-07-13T19:36:27;24.10;99.90
17986;DHT22;9118;48.122;11.546;2023-07-13T19:38:57;24.00;99.90
17986;DHT22;9118;48.122;11.546;2023-07-13T19:41:27;24.20;99.90
17986;DHT22;9118;48.122;11.546;2023-07-13T19:46:26;23.90;99.90
17986;DHT22;9118;48.122;11.546;2023-07-13T19:48:54;24.00;99.90
17986;DHT22;9118;48.122;11.546;2023-07-13T19:51:22;23.80;99.90
17986;DHT22;9118;48.122;11.546;2023-07-13T19:53:56;23.60;99.90
17986;DHT22;9118;48.122;11.546;2023-07-13T19:58:52;23.60;99.90
17986;DHT22;9118;48.122;11.546;2023-07-13T20:01:19;23.60;99.90
17986;DHT22;9118;48.122;11.546;2023-07-13T20:03:46;23.40;99.90
17986;DHT22;9118;48.122;11.546;2023-07-13T20:06:26;23.30;99.90
17986;DHT22;9118;48.122;11.546;2023-07-13T20:08:57;23.40;99.90
17986;DHT22;9118;48.122;11.546;2023-07-13T20:13:52;23.20;99.90
17986;DHT22;9118;48.122;11.546;2023-07-13T20:16:20;23.10;99.90
17986;DHT22;9118;48.122;11.546;2023-07-13T20:18:48;22.90;99.90
17986;DHT22;9118;48.122;11.546;2023-07-13T20:21:15;23.30;99.90
17986;DHT22;9118;48.122;11.546;2023-07-13T20:23:43;23.20;99.90
17986;DHT22;9118;48.122;11.546;2023-07-13T20:26:11;23.20;99.90
17986;DHT22;9118;48.122;11.546;2023-07-13T20:31:11;23.00;99.90
17986;DHT22;9118;48.122;11.546;2023-07-13T20:33:39;23.10;99.90
17986;DHT22;9118;48.122;11.546;2023-07-13T20:36:10;22.70;99.90
17986;DHT22;9118;48.122;11.546;2023-07-13T20:38:38;22.90;99.90
17986;DHT22;9118;48.122;11.546;2023-07-13T20:41:04;22.60;99.90
17986;DHT22;9118;48.122;11.546;2023-07-13T20:43:33;22.60;99.90
17986;DHT22;9118;48.122;11.546;2023-07-13T20:46:02;23.10;99.90
17986;DHT22;9118;48.122;11.546;2023-07-13T20:48:36;22.60;99.90
17986;DHT22;9118;48.122;11.546;2023-07-13T20:51:05;22.70;99.90
17986;DHT22;9118;48.122;11.546;2023-07-13T20:58:27;22.50;99.90
17986;DHT22;9118;48.122;11.546;2023-07-13T21:00:56;22.40;99.90